Time;durP1;ratioP1;P1;durP2;ratioP2;P2;SDS_P1;SDS_P2;PMS_P1;PMS_P2;Temp;Humidity;BMP_temperature;BMP_pressure;BME280_temperature;BME280_humidity;BME280_pressure;Samples;Min_cycle;Max_cycle;Signal;HPM_P1;HPM_P2
2022/09/06 00:21:01;;;;;;;1.10;1.00;;;14.60;46.20;;;;;;4995308;23;20244;-35
2022/09/06 00:23:32;;;;;;;1.25;0.95;;;14.60;46.00;;;;;;4913315;29;20196;-34
2022/09/06 00:26:06;;;;;;;1.55;0.98;;;14.60;45.90;;;;;;4903666;29;20221;-37
2022/09/06 00:28:36;;;;;;;1.23;0.80;;;14.70;45.70;;;;;;4897273;29;20254;-40
2022/09/06 00:31:15;;;;;;;1.27;1.00;;;14.80;45.60;;;;;;4859594;29;20213;-35
2022/09/06 00:33:46;;;;;;;1.73;1.13;;;14.80;45.40;;;;;;4893860;29;20208;-35
2022/09/06 00:36:19;;;;;;;2.28;1.02;;;14.90;45.30;;;;;;4897176;29;20615;-35
2022/09/06 00:38:50;;;;;;;2.95;0.80;;;14.90;45.20;;;;;;4886488;29;20208;-35
2022/09/06 00:41:20;;;;;;;1.20;0.73;;;15.00;45.40;;;;;;4879132;29;20662;-35
2022/09/06 00:43:51;;;;;;;1.15;0.88;;;15.00;45.50;;;;;;4895363;29;20207;-36
2022/09/06 00:46:24;;;;;;;1.30;0.85;;;15.10;45.50;;;;;;4897437;29;20224;-35
2022/09/06 00:48:58;;;;;;;0.98;0.88;;;15.10;45.20;;;;;;4896703;29;20228;-35
2022/09/06 00:51:32;;;;;;;1.17;0.80;;;15.20;45.20;;;;;;4897443;29;20200;-35
2022/09/06 00:54:05;;;;;;;1.95;1.00;;;15.20;45.50;;;;;;4879891;29;20198;-36
2022/09/06 00:56:40;;;;;;;1.02;0.80;;;15.30;46.40;;;;;;4878578;29;20221;-35
2022/09/06 00:59:11;;;;;;;1.95;0.80;;;15.30;46.50;;;;;;4896736;29;20204;-35
2022/09/06 01:01:42;;;;;;;0.85;0.80;;;15.40;45.60;;;;;;4896620;29;20204;-35
2022/09/06 01:04:13;;;;;;;0.82;0.60;;;15.50;44.90;;;;;;4896682;29;20205;-35
2022/09/06 01:06:57;;;;;;;1.00;0.70;;;15.50;44.30;;;;;;4895708;29;20213;-35
2022/09/06 01:09:45;;;;;;;1.73;0.80;;;15.60;44.10;;;;;;4881430;29;20205;-35
2022/09/06 01:12:33;;;;;;;1.20;0.70;;;15.60;43.90;;;;;;4880570;29;20236;-35
2022/09/06 01:15:22;;;;;;;1.15;0.60;;;15.70;43.70;;;;;;4885024;29;20221;-35
2022/09/06 01:18:01;;;;;;;1.35;0.70;;;15.70;43.70;;;;;;4885583;29;20193;-35
2022/09/06 01:20:54;;;;;;;0.95;0.57;;;15.80;43.60;;;;;;4940826;23;20642;-36
2022/09/06 01:24:09;;;;;;;1.25;0.70;;;15.80;43.20;;;;;;4922077;29;20193;-47
2022/09/06 01:27:15;;;;;;;2.03;0.80;;;15.90;43.20;;;;;;4911938;29;20227;-49
2022/09/06 01:29:53;;;;;;;2.13;0.93;;;15.90;43.00;;;;;;4901486;29;20200;-43
2022/09/06 01:32:30;;;;;;;1.55;0.80;;;16.00;43.20;;;;;;4915441;29;20203;-46
2022/09/06 01:35:07;;;;;;;1.02;0.65;;;16.00;43.20;;;;;;4914425;29;20223;-44
2022/09/06 01:37:38;;;;;;;2.10;0.70;;;16.00;43.00;;;;;;4914442;29;20195;-34
2022/09/06 01:40:10;;;;;;;0.80;0.50;;;16.10;43.00;;;;;;4914362;29;20207;-53
2022/09/06 01:42:42;;;;;;;1.08;0.80;;;16.10;42.90;;;;;;4920232;29;20567;-35
2022/09/06 01:45:19;;;;;;;0.98;0.80;;;16.10;42.80;;;;;;4933258;29;20220;-34
2022/09/06 01:48:03;;;;;;;1.38;0.70;;;16.20;42.70;;;;;;4933982;29;20592;-47
2022/09/06 01:50:58;;;;;;;0.85;0.60;;;16.20;42.90;;;;;;4932930;29;20206;-36
2022/09/06 01:53:54;;;;;;;1.40;0.82;;;16.20;43.20;;;;;;4922180;29;20200;-38
2022/09/06 01:56:37;;;;;;;1.40;0.85;;;16.30;43.40;;;;;;4908115;29;20224;-46
2022/09/06 01:59:30;;;;;;;1.25;0.82;;;16.30;43.50;;;;;;4914658;29;20192;-44
2022/09/06 02:02:07;;;;;;;0.65;0.65;;;16.20;43.60;;;;;;4914700;29;20196;-38
2022/09/06 02:04:45;;;;;;;0.82;0.68;;;16.20;43.70;;;;;;4894803;29;20282;-47
2022/09/06 02:07:22;;;;;;;1.52;0.60;;;16.30;43.80;;;;;;4895029;29;20197;-45
2022/09/06 02:09:57;;;;;;;1.98;0.80;;;16.30;43.90;;;;;;4913995;29;20215;-40
2022/09/06 02:12:29;;;;;;;1.55;0.88;;;16.30;44.00;;;;;;4913466;29;20212;-42
2022/09/06 02:15:04;;;;;;;1.33;0.70;;;16.30;44.20;;;;;;4913869;29;20704;-36
2022/09/06 02:17:41;;;;;;;1.05;0.70;;;16.30;44.30;;;;;;4913725;29;20199;-35
2022/09/06 02:20:14;;;;;;;1.10;0.70;;;16.30;44.40;;;;;;4925003;23;20243;-34
2022/09/06 02:22:48;;;;;;;1.00;0.60;;;16.30;44.60;;;;;;4909888;29;20649;-36
2022/09/06 02:25:24;;;;;;;1.77;0.60;;;16.30;44.70;;;;;;4895141;29;20569;-35
2022/09/06 02:27:56;;;;;;;0.80;0.60;;;16.30;44.80;;;;;;4894649;29;20228;-35
2022/09/06 02:30:27;;;;;;;1.10;0.80;;;16.30;44.80;;;;;;4895461;29;20215;-35
2022/09/06 02:33:03;;;;;;;0.93;0.80;;;16.30;44.90;;;;;;4895426;29;20196;-35
2022/09/06 02:35:34;;;;;;;0.57;0.57;;;16.30;44.90;;;;;;4894856;29;20232;-35
2022/09/06 02:38:05;;;;;;;1.83;0.60;;;16.30;45.00;;;;;;4890174;29;20212;-35
2022/09/06 02:40:35;;;;;;;0.70;0.65;;;16.40;45.10;;;;;;4875514;29;20202;-35
2022/09/06 02:43:06;;;;;;;1.15;0.70;;;16.40;45.30;;;;;;4881836;29;20204;-35
2022/09/06 02:45:37;;;;;;;0.60;0.50;;;16.40;45.40;;;;;;4894646;29;20221;-35
2022/09/06 02:48:10;;;;;;;0.90;0.70;;;16.40;45.50;;;;;;4894780;29;20225;-35
2022/09/06 02:50:40;;;;;;;0.80;0.70;;;16.40;45.60;;;;;;4883292;29;20584;-35
2022/09/06 02:53:12;;;;;;;0.85;0.60;;;16.40;45.70;;;;;;4871114;29;20625;-35
2022/09/06 02:55:43;;;;;;;1.80;0.90;;;16.40;45.70;;;;;;4894119;29;20223;-35
2022/09/06 02:58:15;;;;;;;0.80;0.77;;;16.50;45.80;;;;;;4894329;29;20208;-35
2022/09/06 03:00:46;;;;;;;1.30;0.70;;;16.50;45.80;;;;;;4893303;29;20200;-35
2022/09/06 03:03:19;;;;;;;0.85;0.63;;;16.50;45.80;;;;;;4879175;29;20192;-35
2022/09/06 03:05:51;;;;;;;0.77;0.60;;;16.50;45.80;;;;;;4889157;29;20221;-35
2022/09/06 03:08:24;;;;;;;1.33;0.77;;;16.50;45.80;;;;;;4881724;29;20225;-34
2022/09/06 03:10:56;;;;;;;0.60;0.52;;;16.60;45.80;;;;;;4895318;29;20201;-35
2022/09/06 03:13:27;;;;;;;0.57;0.57;;;16.60;45.80;;;;;;4894125;29;20659;-35
2022/09/06 03:15:59;;;;;;;0.75;0.60;;;16.60;45.90;;;;;;4895110;29;20217;-35
2022/09/06 03:18:32;;;;;;;0.90;0.80;;;16.70;46.10;;;;;;4893810;29;20189;-35
2022/09/06 03:21:03;;;;;;;1.08;0.80;;;16.70;46.10;;;;;;4875677;29;20218;-35
2022/09/06 03:23:34;;;;;;;0.80;0.70;;;16.70;46.10;;;;;;4877028;29;20669;-35
2022/09/06 03:26:05;;;;;;;0.85;0.60;;;16.70;46.10;;;;;;4894253;29;20834;-35
2022/09/06 03:28:35;;;;;;;1.55;0.88;;;16.80;46.20;;;;;;4894218;29;20223;-35
2022/09/06 03:31:06;;;;;;;0.88;0.70;;;16.80;46.20;;;;;;4894542;29;20201;-35
2022/09/06 03:33:39;;;;;;;1.00;0.77;;;16.80;46.30;;;;;;4894818;29;20539;-35
2022/09/06 03:36:10;;;;;;;0.90;0.65;;;16.80;46.30;;;;;;4894143;29;20225;-35
2022/09/06 03:38:41;;;;;;;0.68;0.68;;;16.80;46.40;;;;;;4891367;29;20580;-35
2022/09/06 03:41:12;;;;;;;0.95;0.68;;;16.80;46.40;;;;;;4894374;29;20212;-35
2022/09/06 03:43:42;;;;;;;0.80;0.60;;;16.90;46.40;;;;;;4894564;29;20189;-35
2022/09/06 03:46:13;;;;;;;0.80;0.60;;;16.90;46.40;;;;;;4893399;29;20217;-34
2022/09/06 03:48:46;;;;;;;1.13;0.70;;;17.00;46.40;;;;;;4891226;29;20249;-35
2022/09/06 03:51:16;;;;;;;0.50;0.47;;;17.00;46.40;;;;;;4875102;29;20221;-35
2022/09/06 03:53:47;;;;;;;1.30;0.70;;;17.00;46.40;;;;;;4882520;29;20193;-35
2022/09/06 03:56:18;;;;;;;0.75;0.63;;;17.00;46.30;;;;;;4894752;29;20223;-35
2022/09/06 03:58:49;;;;;;;1.23;0.70;;;17.10;46.40;;;;;;4897347;29;20197;-35
2022/09/06 04:01:19;;;;;;;0.82;0.77;;;17.10;46.40;;;;;;4898542;29;20566;-35
2022/09/06 04:03:52;;;;;;;0.73;0.70;;;17.10;46.40;;;;;;4897700;29;20200;-36
2022/09/06 04:06:24;;;;;;;1.40;0.60;;;17.10;46.40;;;;;;4898210;29;20224;-35
2022/09/06 04:08:54;;;;;;;0.50;0.50;;;17.10;46.40;;;;;;4893183;29;20292;-35
2022/09/06 04:11:25;;;;;;;1.02;0.75;;;17.20;46.50;;;;;;4897688;29;20197;-35
2022/09/06 04:13:56;;;;;;;0.82;0.60;;;17.20;46.50;;;;;;4897213;29;20662;-35
2022/09/06 04:16:26;;;;;;;0.75;0.60;;;17.30;46.50;;;;;;4897123;29;20246;-35
2022/09/06 04:21:39;;;;;;;1.23;0.60;;;17.30;46.40;;;;;;4895742;29;20229;-34
2022/09/06 04:24:10;;;;;;;1.00;0.70;;;17.40;46.40;;;;;;4897952;29;20252;-45
2022/09/06 04:26:41;;;;;;;0.65;0.52;;;17.40;46.40;;;;;;4896711;29;20240;-34
2022/09/06 04:29:11;;;;;;;1.05;0.70;;;17.40;46.40;;;;;;4897209;29;20618;-34
2022/09/06 04:31:42;;;;;;;0.95;0.70;;;17.40;46.40;;;;;;4897303;29;20209;-51
2022/09/06 04:34:12;;;;;;;0.60;0.60;;;17.50;46.40;;;;;;4897536;29;20208;-47
2022/09/06 04:36:45;;;;;;;0.77;0.57;;;17.50;46.40;;;;;;4896813;29;20225;-45
2022/09/06 04:39:16;;;;;;;0.70;0.50;;;17.40;46.40;;;;;;4891348;29;20205;-49
2022/09/06 04:41:47;;;;;;;0.93;0.60;;;17.50;46.50;;;;;;4897338;29;20204;-50
2022/09/06 04:44:17;;;;;;;0.90;0.70;;;17.50;46.40;;;;;;4896366;29;20197;-46
2022/09/06 04:46:48;;;;;;;1.02;0.80;;;17.50;46.40;;;;;;4896946;29;20221;-49
2022/09/06 04:49:19;;;;;;;1.20;1.10;;;17.50;46.40;;;;;;4896274;29;20251;-41
2022/09/06 04:51:52;;;;;;;1.23;1.13;;;17.50;46.40;;;;;;4896330;29;20205;-37
2022/09/06 04:54:22;;;;;;;2.55;1.00;;;17.60;46.30;;;;;;4886254;29;20201;-43
2022/09/06 04:56:53;;;;;;;1.63;1.08;;;17.50;46.30;;;;;;4897457;29;20228;-41
2022/09/06 04:59:24;;;;;;;1.10;1.00;;;17.60;46.40;;;;;;4895759;29;20196;-41
2022/09/06 05:01:55;;;;;;;1.10;1.00;;;17.50;46.40;;;;;;4896388;29;20201;-48
2022/09/06 05:04:25;;;;;;;1.05;0.95;;;17.60;46.40;;;;;;4873791;29;20233;-45
2022/09/06 05:07:07;;;;;;;1.15;0.98;;;17.50;46.50;;;;;;4859354;29;20202;-40
2022/09/06 05:09:38;;;;;;;1.15;1.05;;;17.50;46.50;;;;;;4884267;29;20268;-39
2022/09/06 05:12:09;;;;;;;1.25;0.90;;;17.50;46.60;;;;;;4895976;29;20201;-41
2022/09/06 05:14:39;;;;;;;1.30;1.00;;;17.50;46.60;;;;;;4896492;29;20200;-36
2022/09/06 05:17:12;;;;;;;1.23;1.00;;;17.50;46.60;;;;;;4896204;29;20571;-48
2022/09/06 05:19:42;;;;;;;1.30;1.00;;;17.60;46.60;;;;;;4914029;23;20255;-34
2022/09/06 05:22:16;;;;;;;1.65;1.33;;;17.50;46.60;;;;;;4933343;29;20271;-35
2022/09/06 05:24:47;;;;;;;1.35;1.10;;;17.60;46.70;;;;;;4931894;29;20203;-34
2022/09/06 05:27:18;;;;;;;1.25;1.10;;;17.60;46.80;;;;;;4914232;29;20299;-52
2022/09/06 05:29:48;;;;;;;1.85;1.38;;;17.60;46.80;;;;;;4914119;29;20224;-35
2022/09/06 05:32:19;;;;;;;1.45;1.33;;;17.60;46.70;;;;;;4909992;29;20193;-35
2022/09/06 05:34:49;;;;;;;1.70;1.40;;;17.50;46.60;;;;;;4894703;29;20201;-35
2022/09/06 05:37:22;;;;;;;1.80;1.30;;;17.60;46.80;;;;;;4895303;29;20205;-36
2022/09/06 05:39:53;;;;;;;1.85;1.52;;;17.60;46.70;;;;;;4893539;29;20209;-35
2022/09/06 05:42:23;;;;;;;1.63;1.52;;;17.50;46.70;;;;;;4895061;29;20213;-35
2022/09/06 05:44:54;;;;;;;1.73;1.42;;;17.50;46.70;;;;;;4894396;29;20280;-35
2022/09/06 05:47:24;;;;;;;2.55;1.50;;;17.50;46.80;;;;;;4895060;29;20261;-35
2022/09/06 05:49:56;;;;;;;1.10;1.00;;;17.50;46.80;;;;;;4894960;29;20772;-35
2022/09/06 05:52:29;;;;;;;1.42;1.33;;;17.50;46.70;;;;;;4894912;29;20197;-35
2022/09/06 05:54:59;;;;;;;2.00;1.40;;;17.50;46.70;;;;;;4897819;29;20281;-37
2022/09/06 05:57:30;;;;;;;1.95;1.45;;;17.50;46.70;;;;;;4895149;29;20204;-35
2022/09/06 06:00:00;;;;;;;1.70;1.30;;;17.50;46.70;;;;;;4895359;29;20204;-35
2022/09/06 06:02:31;;;;;;;2.08;1.58;;;17.40;46.70;;;;;;4894885;29;20201;-34
2022/09/06 06:05:02;;;;;;;1.20;1.10;;;17.40;46.70;;;;;;4895122;29;20221;-34
2022/09/06 06:07:34;;;;;;;2.42;1.52;;;17.40;46.70;;;;;;4895058;29;20205;-35
2022/09/06 06:10:05;;;;;;;1.70;1.60;;;17.40;46.80;;;;;;4895008;29;20235;-34
2022/09/06 06:12:36;;;;;;;2.38;1.50;;;17.40;46.80;;;;;;4895109;29;20204;-34
2022/09/06 06:15:07;;;;;;;1.75;1.60;;;17.30;46.70;;;;;;4894619;29;20684;-44
2022/09/06 06:17:37;;;;;;;2.45;1.75;;;17.30;46.80;;;;;;4912652;29;20200;-34
2022/09/06 06:20:08;;;;;;;2.55;1.50;;;17.30;46.80;;;;;;4919416;23;20491;-36
2022/09/06 06:22:41;;;;;;;2.08;1.88;;;17.30;46.90;;;;;;4894527;29;20201;-43
2022/09/06 06:25:12;;;;;;;1.80;1.60;;;17.30;46.90;;;;;;4894872;29;20221;-38
2022/09/06 06:27:42;;;;;;;2.33;1.65;;;17.30;46.90;;;;;;4895596;29;20204;-41
2022/09/06 06:30:14;;;;;;;2.17;1.58;;;17.20;46.90;;;;;;4894595;29;20650;-48
2022/09/06 06:32:44;;;;;;;2.53;1.83;;;17.20;46.90;;;;;;4895609;29;20207;-39
2022/09/06 06:35:15;;;;;;;2.00;1.75;;;17.20;46.90;;;;;;4894239;29;20220;-42
2022/09/06 06:37:48;;;;;;;2.05;1.85;;;17.20;46.90;;;;;;4894761;29;20649;-39
2022/09/06 06:40:22;;;;;;;2.00;1.80;;;17.10;46.90;;;;;;4895056;29;20283;-44
2022/09/06 06:42:53;;;;;;;2.47;1.92;;;17.10;46.90;;;;;;4894351;29;20665;-50
2022/09/06 06:45:23;;;;;;;4.22;2.03;;;17.10;47.00;;;;;;4894248;29;20221;-49
2022/09/06 06:47:54;;;;;;;2.20;2.00;;;17.10;47.30;;;;;;4894608;29;20562;-43
2022/09/06 06:50:25;;;;;;;2.10;1.90;;;17.00;47.30;;;;;;4894477;29;20777;-38
2022/09/06 06:52:57;;;;;;;2.22;1.92;;;17.00;47.30;;;;;;4894740;29;20197;-41
2022/09/06 06:55:28;;;;;;;2.35;2.15;;;17.00;47.30;;;;;;4895030;29;20227;-36
2022/09/06 06:58:01;;;;;;;2.40;2.00;;;17.00;47.40;;;;;;4894810;29;20209;-50
2022/09/06 07:00:31;;;;;;;2.53;2.00;;;17.00;47.40;;;;;;4895178;29;20208;-37
2022/09/06 07:03:02;;;;;;;2.63;1.83;;;16.90;47.40;;;;;;4892190;29;20204;-38
2022/09/06 07:05:33;;;;;;;2.83;2.13;;;16.90;47.30;;;;;;4894664;29;20221;-48
2022/09/06 07:08:06;;;;;;;2.53;2.00;;;16.90;47.30;;;;;;4894333;29;20661;-41
2022/09/06 07:10:37;;;;;;;2.88;2.25;;;16.90;47.30;;;;;;4894766;29;20300;-41
2022/09/06 07:13:07;;;;;;;2.75;2.10;;;16.80;47.30;;;;;;4888291;29;20615;-38
2022/09/06 07:15:38;;;;;;;2.03;1.88;;;16.80;47.30;;;;;;4875410;29;20705;-38
2022/09/06 07:18:09;;;;;;;2.50;2.30;;;16.80;47.30;;;;;;4875397;29;20209;-42
2022/09/06 07:20:39;;;;;;;3.03;2.20;;;16.70;47.30;;;;;;4921110;23;21090;-35
2022/09/06 07:23:12;;;;;;;3.22;2.53;;;16.70;47.40;;;;;;4911837;29;20210;-39
2022/09/06 07:25:43;;;;;;;3.05;2.50;;;16.60;47.40;;;;;;4902239;29;20224;-35
2022/09/06 07:28:13;;;;;;;3.08;2.78;;;16.60;47.40;;;;;;4893472;29;20269;-34
2022/09/06 07:30:45;;;;;;;3.22;2.92;;;16.60;47.40;;;;;;4874553;29;20224;-34
2022/09/06 07:33:16;;;;;;;3.30;2.85;;;16.50;47.50;;;;;;4877744;29;20289;-34
2022/09/06 07:35:57;;;;;;;4.13;3.00;;;16.50;47.50;;;;;;4890763;29;20236;-34
2022/09/06 07:38:31;;;;;;;3.42;2.97;;;16.50;47.50;;;;;;4889586;29;20211;-34
2022/09/06 07:41:02;;;;;;;3.30;3.00;;;16.50;47.50;;;;;;4878541;29;20257;-35
2022/09/06 07:43:33;;;;;;;4.05;3.03;;;16.40;47.40;;;;;;4878038;29;20227;-39
2022/09/06 07:46:05;;;;;;;3.75;3.40;;;16.40;47.50;;;;;;4878196;29;20304;-34
2022/09/06 07:48:37;;;;;;;3.17;2.80;;;16.40;47.50;;;;;;4892142;29;20249;-34
2022/09/06 07:51:10;;;;;;;3.13;2.83;;;16.30;47.50;;;;;;4896412;29;20229;-41
2022/09/06 07:53:44;;;;;;;3.65;3.10;;;16.30;47.60;;;;;;4896687;29;20205;-36
2022/09/06 07:56:15;;;;;;;3.03;2.60;;;16.20;47.60;;;;;;4896961;29;20735;-34
2022/09/06 07:58:46;;;;;;;2.97;2.67;;;16.20;47.60;;;;;;4896815;29;20201;-34
2022/09/06 08:01:29;;;;;;;3.90;2.97;;;16.20;47.60;;;;;;4896821;29;20609;-35
2022/09/06 08:04:00;;;;;;;4.25;3.15;;;16.10;47.60;;;;;;4881754;29;20262;-34
2022/09/06 08:06:32;;;;;;;3.58;3.08;;;16.10;47.60;;;;;;4894660;29;20231;-35
2022/09/06 08:09:05;;;;;;;5.88;3.40;;;16.10;47.70;;;;;;4884796;29;20609;-34
2022/09/06 08:11:37;;;;;;;3.25;2.95;;;16.00;47.70;;;;;;4874663;29;20565;-35
2022/09/06 08:14:09;;;;;;;4.18;3.03;;;16.10;47.90;;;;;;4877121;29;20828;-34
2022/09/06 08:16:40;;;;;;;3.42;2.95;;;16.00;48.10;;;;;;4879326;29;20313;-36
2022/09/06 08:19:14;;;;;;;3.60;2.67;;;16.00;48.30;;;;;;4878954;29;20284;-34
2022/09/06 08:21:45;;;;;;;4.00;3.03;;;16.00;48.30;;;;;;4878637;29;20213;-33
2022/09/06 08:24:17;;;;;;;3.33;2.67;;;15.90;48.40;;;;;;4885401;29;20208;-34
2022/09/06 08:26:48;;;;;;;3.88;2.85;;;16.00;48.40;;;;;;4897509;29;20217;-38
2022/09/06 08:29:19;;;;;;;3.45;2.70;;;15.90;48.30;;;;;;4896786;29;20284;-37
2022/09/06 08:31:50;;;;;;;3.58;2.78;;;15.90;48.30;;;;;;4880272;29;20205;-34
2022/09/06 08:34:21;;;;;;;3.42;2.67;;;15.90;48.30;;;;;;4878139;29;20305;-37
2022/09/06 08:36:52;;;;;;;3.63;2.75;;;15.80;48.40;;;;;;4878954;29;20233;-35
2022/09/06 08:39:24;;;;;;;4.10;3.20;;;15.80;48.40;;;;;;4878904;29;20212;-39
2022/09/06 08:41:59;;;;;;;3.80;2.78;;;15.80;48.50;;;;;;4878492;29;20205;-35
2022/09/06 08:44:34;;;;;;;3.75;3.28;;;15.70;48.40;;;;;;4878366;29;20200;-48
2022/09/06 08:47:08;;;;;;;2.70;2.45;;;15.70;48.50;;;;;;4878833;29;20284;-46
2022/09/06 08:49:41;;;;;;;3.28;2.60;;;15.60;48.50;;;;;;4878651;29;20623;-45
2022/09/06 08:52:32;;;;;;;3.40;2.90;;;15.60;48.50;;;;;;4878082;29;20205;-42
2022/09/06 08:55:26;;;;;;;4.25;2.80;;;15.60;48.60;;;;;;4881518;29;20248;-46
2022/09/06 08:58:12;;;;;;;2.95;2.63;;;15.50;48.50;;;;;;4876401;29;20213;-36
2022/09/06 09:00:49;;;;;;;3.28;2.70;;;15.50;48.50;;;;;;4878353;29;20607;-38
2022/09/06 09:03:24;;;;;;;3.40;2.70;;;15.50;48.50;;;;;;4877323;29;20428;-37
2022/09/06 09:05:56;;;;;;;3.15;2.70;;;15.50;48.50;;;;;;4877773;29;20261;-34
2022/09/06 09:08:31;;;;;;;3.13;2.83;;;15.40;48.50;;;;;;4867715;29;20212;-34
2022/09/06 09:11:05;;;;;;;3.22;2.42;;;15.40;48.60;;;;;;4877649;29;20245;-34
2022/09/06 09:13:41;;;;;;;3.75;2.65;;;15.30;48.60;;;;;;4877584;29;20206;-44
2022/09/06 09:16:11;;;;;;;3.17;2.83;;;15.30;48.60;;;;;;4877628;29;20704;-46
2022/09/06 09:18:45;;;;;;;2.83;2.53;;;15.30;48.60;;;;;;4877178;29;20209;-34
2022/09/06 09:21:17;;;;;;;4.07;2.65;;;15.30;48.70;;;;;;4931292;23;20726;-35
2022/09/06 09:23:54;;;;;;;3.25;2.85;;;15.20;48.70;;;;;;4933582;29;20199;-46
2022/09/06 09:26:29;;;;;;;3.60;2.90;;;15.20;48.70;;;;;;4929921;29;20234;-44
2022/09/06 09:29:08;;;;;;;3.50;2.90;;;15.20;48.70;;;;;;4912481;29;20207;-47
2022/09/06 09:31:41;;;;;;;5.22;2.78;;;15.20;48.70;;;;;;4914680;29;20235;-54
2022/09/06 09:34:14;;;;;;;3.50;2.95;;;15.10;48.70;;;;;;4915335;29;20450;-50
2022/09/06 09:36:45;;;;;;;3.25;2.65;;;15.10;48.70;;;;;;4913850;29;20227;-50
2022/09/06 09:39:16;;;;;;;3.10;2.80;;;15.10;48.70;;;;;;4915040;29;20204;-49
2022/09/06 09:41:53;;;;;;;3.38;2.60;;;15.10;48.70;;;;;;4914865;29;20661;-49
2022/09/06 09:44:26;;;;;;;2.92;2.63;;;15.00;48.70;;;;;;4914123;29;20572;-53
2022/09/06 09:46:57;;;;;;;4.00;2.40;;;15.00;48.70;;;;;;4914195;29;20200;-51
2022/09/06 09:49:32;;;;;;;2.90;2.60;;;15.00;48.70;;;;;;4914795;29;20211;-52
2022/09/06 09:52:12;;;;;;;3.28;2.70;;;14.90;48.80;;;;;;4914832;29;20203;-48
2022/09/06 09:54:44;;;;;;;3.33;2.83;;;14.90;48.80;;;;;;4913013;29;20224;-40
2022/09/06 09:57:20;;;;;;;3.95;2.58;;;14.90;48.80;;;;;;4913696;29;20200;-45
2022/09/06 09:59:56;;;;;;;2.72;2.50;;;14.80;48.80;;;;;;4916793;29;20705;-54
2022/09/06 10:02:29;;;;;;;2.58;2.20;;;14.80;48.80;;;;;;4914448;29;20216;-50
2022/09/06 10:05:05;;;;;;;2.72;2.40;;;14.80;48.80;;;;;;4913438;29;20216;-50
2022/09/06 10:07:42;;;;;;;3.10;2.40;;;14.80;48.80;;;;;;4914078;29;20615;-53
2022/09/06 10:10:17;;;;;;;3.85;2.65;;;14.80;48.80;;;;;;4914297;29;20226;-44
2022/09/06 10:12:50;;;;;;;2.40;2.20;;;14.70;48.80;;;;;;4914466;29;20537;-45
2022/09/06 10:15:36;;;;;;;2.92;2.40;;;14.70;49.40;;;;;;4913871;29;20231;-50
2022/09/06 10:18:07;;;;;;;2.92;2.60;;;14.70;48.80;;;;;;4913609;29;20204;-50
2022/09/06 10:20:43;;;;;;;3.17;2.53;;;14.70;48.90;;;;;;4913116;29;20691;-50
2022/09/06 11:07:33;;;;;;;2.40;2.20;;;14.30;48.90;;;;;;5659222;23;20231;-34
2022/09/06 11:10:15;;;;;;;2.95;2.30;;;14.30;49.00;;;;;;4897430;29;20252;-39
2022/09/06 11:13:02;;;;;;;2.38;2.13;;;14.30;49.00;;;;;;4897003;29;20569;-35
2022/09/06 11:15:42;;;;;;;2.38;1.95;;;14.30;49.00;;;;;;4903011;29;20228;-44
2022/09/06 11:18:19;;;;;;;2.78;1.92;;;14.20;48.90;;;;;;4898849;29;20200;-44
2022/09/06 11:21:04;;;;;;;2.72;2.00;;;14.20;48.90;;;;;;4898078;29;20622;-44
2022/09/06 11:23:49;;;;;;;2.20;2.00;;;14.20;49.00;;;;;;4911422;23;20240;-35
2022/09/06 11:26:38;;;;;;;2.78;2.25;;;14.20;49.00;;;;;;4917604;29;20227;-36
2022/09/06 11:29:11;;;;;;;3.17;2.10;;;14.20;49.00;;;;;;4917378;29;20242;-45
2022/09/06 11:31:54;;;;;;;3.33;2.30;;;14.10;48.90;;;;;;4917328;29;20231;-47
2022/09/06 11:34:30;;;;;;;3.13;2.28;;;14.10;49.00;;;;;;4911745;29;20249;-37
2022/09/06 11:37:02;;;;;;;2.78;2.47;;;14.10;49.00;;;;;;4898524;29;20200;-48
2022/09/06 11:39:38;;;;;;;3.22;2.35;;;14.10;49.00;;;;;;4897684;29;20216;-49
2022/09/06 11:42:11;;;;;;;2.45;2.20;;;14.10;49.00;;;;;;4898271;29;20677;-47
2022/09/06 11:45:16;;;;;;;2.67;2.20;;;14.10;49.00;;;;;;4897889;29;20284;-46
2022/09/06 11:47:48;;;;;;;3.40;2.47;;;14.00;49.60;;;;;;4898259;29;20204;-43
2022/09/06 11:50:53;;;;;;;2.60;2.30;;;14.00;49.00;;;;;;4898441;29;20220;-41
2022/09/06 11:53:26;;;;;;;2.60;2.20;;;14.00;49.00;;;;;;4898679;29;20219;-41
2022/09/06 11:56:18;;;;;;;2.78;2.03;;;14.00;49.00;;;;;;4896557;29;20563;-38
2022/09/06 11:58:55;;;;;;;2.47;2.03;;;13.90;49.00;;;;;;4896409;29;20565;-41
2022/09/06 12:01:39;;;;;;;2.35;2.10;;;13.90;49.00;;;;;;4896461;29;20203;-39
2022/09/06 12:04:13;;;;;;;2.20;2.00;;;13.90;49.00;;;;;;4896166;29;20201;-41
2022/09/06 12:07:04;;;;;;;2.22;2.03;;;13.90;49.00;;;;;;4896149;29;20225;-46
2022/09/06 12:09:37;;;;;;;3.33;2.33;;;13.90;49.00;;;;;;4896116;29;20235;-38
2022/09/06 12:12:10;;;;;;;2.72;2.13;;;13.80;48.90;;;;;;4896175;29;20224;-36
2022/09/06 12:14:44;;;;;;;2.30;2.10;;;13.80;49.00;;;;;;4895670;29;20201;-38
2022/09/06 12:17:25;;;;;;;2.38;2.00;;;13.80;49.00;;;;;;4895882;29;20201;-43
2022/09/06 12:20:05;;;;;;;2.45;2.20;;;13.80;49.00;;;;;;4877812;29;20673;-49
2022/09/06 12:25:43;;;;;;;2.00;1.88;;;13.70;49.00;;;;;;5899660;23;20697;-32
2022/09/06 12:28:36;;;;;;;3.58;2.28;;;13.80;49.00;;;;;;4895641;29;20855;-38
2022/09/06 12:31:38;;;;;;;2.65;1.90;;;13.70;49.00;;;;;;4893657;29;20736;-33
2022/09/06 12:34:18;;;;;;;2.58;1.92;;;13.70;49.00;;;;;;4895898;29;20506;-33
2022/09/06 12:37:01;;;;;;;2.85;2.00;;;13.70;48.90;;;;;;4896062;29;20569;-33
2022/09/06 12:39:36;;;;;;;1.98;1.80;;;13.70;49.00;;;;;;4895914;29;20532;-32
2022/09/06 12:42:15;;;;;;;2.35;1.90;;;13.70;49.00;;;;;;4896782;29;20565;-34
2022/09/06 12:44:56;;;;;;;1.98;1.52;;;13.60;49.00;;;;;;4894078;29;20653;-33
2022/09/06 12:47:33;;;;;;;2.75;1.63;;;13.60;48.90;;;;;;4877785;29;20575;-34
2022/09/06 12:50:21;;;;;;;2.20;1.90;;;13.60;49.00;;;;;;4877455;29;20523;-34
2022/09/06 12:52:59;;;;;;;2.38;1.85;;;13.60;49.00;;;;;;4877090;29;20233;-33
2022/09/06 12:55:35;;;;;;;2.05;1.85;;;13.60;48.90;;;;;;4876419;29;20544;-33
2022/09/06 12:58:10;;;;;;;2.22;1.77;;;13.60;49.00;;;;;;4876968;29;20548;-34
2022/09/06 13:00:51;;;;;;;1.70;1.60;;;13.50;48.90;;;;;;4876818;29;20777;-34
2022/09/06 13:03:33;;;;;;;2.70;1.77;;;13.50;48.90;;;;;;4877047;29;20566;-34
2022/09/06 13:06:09;;;;;;;1.92;1.73;;;13.50;49.00;;;;;;4876618;29;20645;-34
2022/09/06 13:08:49;;;;;;;3.25;1.80;;;13.50;49.00;;;;;;4886151;29;20601;-35
2022/09/06 13:11:31;;;;;;;2.25;1.90;;;13.50;49.00;;;;;;4895818;29;20630;-34
2022/09/06 13:14:12;;;;;;;2.08;1.73;;;13.50;49.00;;;;;;4895898;29;20576;-34
2022/09/06 13:16:58;;;;;;;2.20;1.90;;;13.50;49.00;;;;;;4895506;29;20613;-37
2022/09/06 13:19:36;;;;;;;2.33;1.77;;;13.40;48.90;;;;;;4895613;29;20506;-34
2022/09/06 13:22:11;;;;;;;2.17;1.70;;;13.40;48.90;;;;;;4895575;29;20549;-34
2022/09/06 13:24:47;;;;;;;2.45;1.70;;;13.40;48.90;;;;;;4900903;29;20604;-34
2022/09/06 13:27:34;;;;;;;1.80;1.70;;;13.40;48.90;;;;;;4914102;29;20208;-33
2022/09/06 13:30:07;;;;;;;1.60;1.50;;;13.40;48.90;;;;;;4912890;29;20200;-33
2022/09/06 13:32:47;;;;;;;2.85;1.98;;;13.40;48.90;;;;;;4913699;29;20235;-34
2022/09/06 13:35:27;;;;;;;2.22;1.90;;;13.40;48.90;;;;;;4914017;29;20711;-33
2022/09/06 13:38:24;;;;;;;1.98;1.65;;;13.40;49.00;;;;;;4910121;29;20679;-34
2022/09/06 13:40:55;;;;;;;2.08;1.55;;;13.30;49.00;;;;;;4876389;29;20201;-33
2022/09/06 13:43:27;;;;;;;1.73;1.60;;;13.30;48.90;;;;;;4877078;29;20205;-34
2022/09/06 13:46:11;;;;;;;2.40;1.77;;;13.30;48.90;;;;;;4876257;29;20218;-33
2022/09/06 13:48:44;;;;;;;2.03;1.70;;;13.30;49.00;;;;;;4876120;29;20586;-34
2022/09/06 13:51:15;;;;;;;1.83;1.70;;;13.30;48.90;;;;;;4902137;29;20224;-33
2022/09/06 13:53:45;;;;;;;1.83;1.50;;;13.30;48.90;;;;;;4907388;29;20211;-34
2022/09/06 13:56:16;;;;;;;1.60;1.42;;;13.20;48.90;;;;;;4894457;29;20248;-34
2022/09/06 13:58:47;;;;;;;1.83;1.63;;;13.30;48.90;;;;;;4894747;29;20658;-33
2022/09/06 14:01:19;;;;;;;1.77;1.63;;;13.20;48.90;;;;;;4894510;29;20286;-33
2022/09/06 14:03:53;;;;;;;1.98;1.70;;;13.20;48.80;;;;;;4894938;29;20661;-33
2022/09/06 14:06:24;;;;;;;2.40;1.75;;;13.20;48.80;;;;;;4894835;29;20272;-34
2022/09/06 14:08:55;;;;;;;1.60;1.50;;;13.20;48.90;;;;;;4893653;29;20209;-35
2022/09/06 14:11:27;;;;;;;1.65;1.50;;;13.20;48.90;;;;;;4894045;29;20236;-33
2022/09/06 14:13:57;;;;;;;1.77;1.60;;;13.10;48.90;;;;;;4894348;29;20211;-33
2022/09/06 14:16:28;;;;;;;1.60;1.50;;;13.10;48.90;;;;;;4893846;29;20276;-34
2022/09/06 14:19:01;;;;;;;2.78;1.98;;;13.10;48.90;;;;;;4894212;29;20245;-33
2022/09/06 14:21:31;;;;;;;2.10;1.52;;;13.10;48.90;;;;;;4894104;29;20212;-33
2022/09/06 14:24:02;;;;;;;2.08;1.60;;;13.10;48.90;;;;;;4898642;29;20211;-40
2022/09/06 14:26:34;;;;;;;1.80;1.50;;;13.10;48.90;;;;;;4913210;29;20592;-33
2022/09/06 14:29:05;;;;;;;1.83;1.60;;;13.10;48.80;;;;;;4913462;29;20204;-34
2022/09/06 14:31:35;;;;;;;1.92;1.40;;;13.10;48.80;;;;;;4913352;29;20228;-38
2022/09/06 14:34:08;;;;;;;1.60;1.50;;;13.00;48.80;;;;;;4913190;29;20204;-33
2022/09/06 14:36:38;;;;;;;1.58;1.48;;;13.10;48.80;;;;;;4913185;29;20755;-33